sensor_id;sensor_type;location;lat;lon;timestamp;temperature;humidity
75927;DHT22;64605;48.296;16.416;2023-04-24T00:00:27;17.00;54.50
75927;DHT22;64605;48.296;16.416;2023-04-24T00:02:53;17.00;54.60
75927;DHT22;64605;48.296;16.416;2023-04-24T00:05:22;17.00;54.50
75927;DHT22;64605;48.296;16.416;2023-04-24T00:07:48;16.90;54.60
75927;DHT22;64605;48.296;16.416;2023-04-24T00:10:13;16.90;54.60
75927;DHT22;64605;48.296;16.416;2023-04-24T00:12:39;16.90;54.70
75927;DHT22;64605;48.296;16.416;2023-04-24T00:15:05;16.80;54.60
75927;DHT22;64605;48.296;16.416;2023-04-24T00:17:31;16.70;55.40
75927;DHT22;64605;48.296;16.416;2023-04-24T00:19:57;16.60;55.70
75927;DHT22;64605;48.296;16.416;2023-04-24T00:22:28;16.60;55.90
75927;DHT22;64605;48.296;16.416;2023-04-24T00:24:54;16.50;56.40
75927;DHT22;64605;48.296;16.416;2023-04-24T00:27:20;16.50;56.70
75927;DHT22;64605;48.296;16.416;2023-04-24T00:29:46;16.40;57.70
75927;DHT22;64605;48.296;16.416;2023-04-24T00:32:12;16.30;57.70
75927;DHT22;64605;48.296;16.416;2023-04-24T00:34:38;16.30;58.00
75927;DHT22;64605;48.296;16.416;2023-04-24T00:37:04;16.30;58.10
75927;DHT22;64605;48.296;16.416;2023-04-24T00:39:29;16.30;58.10
75927;DHT22;64605;48.296;16.416;2023-04-24T00:41:56;16.30;58.50
75927;DHT22;64605;48.296;16.416;2023-04-24T00:44:22;16.30;58.90
75927;DHT22;64605;48.296;16.416;2023-04-24T00:46:49;16.30;58.90
75927;DHT22;64605;48.296;16.416;2023-04-24T00:49:18;16.20;59.70
75927;DHT22;64605;48.296;16.416;2023-04-24T00:51:44;16.20;59.70
75927;DHT22;64605;48.296;16.416;2023-04-24T00:54:11;16.20;59.80
75927;DHT22;64605;48.296;16.416;2023-04-24T00:56:37;16.20;60.00
75927;DHT22;64605;48.296;16.416;2023-04-24T00:59:03;16.20;60.00
75927;DHT22;64605;48.296;16.416;2023-04-24T01:01:29;16.10;60.00
75927;DHT22;64605;48.296;16.416;2023-04-24T01:03:56;16.10;60.00
75927;DHT22;64605;48.296;16.416;2023-04-24T01:06:23;16.10;60.00
75927;DHT22;64605;48.296;16.416;2023-04-24T01:08:52;16.10;61.20
75927;DHT22;64605;48.296;16.416;2023-04-24T01:11:19;16.10;60.10
75927;DHT22;64605;48.296;16.416;2023-04-24T01:13:47;16.10;60.20
75927;DHT22;64605;48.296;16.416;2023-04-24T01:16:14;16.10;60.20
75927;DHT22;64605;48.296;16.416;2023-04-24T01:18:40;16.00;60.30
75927;DHT22;64605;48.296;16.416;2023-04-24T01:21:08;16.00;60.40
75927;DHT22;64605;48.296;16.416;2023-04-24T01:23:34;15.90;60.40
75927;DHT22;64605;48.296;16.416;2023-04-24T01:26:01;15.80;60.30
75927;DHT22;64605;48.296;16.416;2023-04-24T01:28:26;15.70;61.70
75927;DHT22;64605;48.296;16.416;2023-04-24T01:30:52;15.70;60.40
75927;DHT22;64605;48.296;16.416;2023-04-24T01:33:21;15.60;60.60
75927;DHT22;64605;48.296;16.416;2023-04-24T01:35:47;15.50;60.50
75927;DHT22;64605;48.296;16.416;2023-04-24T01:38:13;15.30;61.00
75927;DHT22;64605;48.296;16.416;2023-04-24T01:40:39;15.30;61.80
75927;DHT22;64605;48.296;16.416;2023-04-24T01:43:05;15.20;61.00
75927;DHT22;64605;48.296;16.416;2023-04-24T01:45:30;15.10;62.00
75927;DHT22;64605;48.296;16.416;2023-04-24T01:47:57;15.00;62.50
75927;DHT22;64605;48.296;16.416;2023-04-24T01:50:22;14.90;62.20
75927;DHT22;64605;48.296;16.416;2023-04-24T01:52:48;14.80;62.50
75927;DHT22;64605;48.296;16.416;2023-04-24T01:55:14;14.70;62.90
75927;DHT22;64605;48.296;16.416;2023-04-24T01:57:40;14.70;62.60
75927;DHT22;64605;48.296;16.416;2023-04-24T02:00:06;14.60;62.80
75927;DHT22;64605;48.296;16.416;2023-04-24T02:02:32;14.50;63.20
75927;DHT22;64605;48.296;16.416;2023-04-24T02:04:58;14.50;63.90
75927;DHT22;64605;48.296;16.416;2023-04-24T02:07:24;14.40;63.40
75927;DHT22;64605;48.296;16.416;2023-04-24T02:09:49;14.30;63.70
75927;DHT22;64605;48.296;16.416;2023-04-24T02:12:16;14.30;64.20
75927;DHT22;64605;48.296;16.416;2023-04-24T02:14:43;14.20;63.70
75927;DHT22;64605;48.296;16.416;2023-04-24T02:17:09;14.20;64.10
75927;DHT22;64605;48.296;16.416;2023-04-24T02:19:35;14.10;64.50
75927;DHT22;64605;48.296;16.416;2023-04-24T02:22:00;14.00;65.20
75927;DHT22;64605;48.296;16.416;2023-04-24T02:24:26;14.00;65.10
75927;DHT22;64605;48.296;16.416;2023-04-24T02:26:52;14.00;65.60
75927;DHT22;64605;48.296;16.416;2023-04-24T02:29:17;13.90;65.70
75927;DHT22;64605;48.296;16.416;2023-04-24T02:31:43;13.90;65.60
75927;DHT22;64605;48.296;16.416;2023-04-24T02:34:09;13.90;65.10
75927;DHT22;64605;48.296;16.416;2023-04-24T02:36:34;13.90;65.40
75927;DHT22;64605;48.296;16.416;2023-04-24T02:39:00;13.80;65.70
75927;DHT22;64605;48.296;16.416;2023-04-24T02:41:26;13.80;66.20
75927;DHT22;64605;48.296;16.416;2023-04-24T02:43:57;13.70;66.00
75927;DHT22;64605;48.296;16.416;2023-04-24T02:46:23;13.70;65.80
75927;DHT22;64605;48.296;16.416;2023-04-24T02:48:48;13.60;65.70
75927;DHT22;64605;48.296;16.416;2023-04-24T02:51:14;13.60;67.60
75927;DHT22;64605;48.296;16.416;2023-04-24T02:53:40;13.60;68.00
75927;DHT22;64605;48.296;16.416;2023-04-24T02:56:05;13.60;67.70
75927;DHT22;64605;48.296;16.416;2023-04-24T02:58:31;13.60;68.00
75927;DHT22;64605;48.296;16.416;2023-04-24T03:00:57;13.60;66.60
75927;DHT22;64605;48.296;16.416;2023-04-24T03:03:23;13.60;67.30
75927;DHT22;64605;48.296;16.416;2023-04-24T03:05:49;13.60;68.60
75927;DHT22;64605;48.296;16.416;2023-04-24T03:08:15;13.60;68.20
75927;DHT22;64605;48.296;16.416;2023-04-24T03:10:41;13.60;68.10
75927;DHT22;64605;48.296;16.416;2023-04-24T03:13:07;13.60;68.20
75927;DHT22;64605;48.296;16.416;2023-04-24T03:15:32;13.50;67.80
75927;DHT22;64605;48.296;16.416;2023-04-24T03:17:58;13.50;68.40
75927;DHT22;64605;48.296;16.416;2023-04-24T03:20:24;13.50;68.10
75927;DHT22;64605;48.296;16.416;2023-04-24T03:22:49;13.40;68.40
75927;DHT22;64605;48.296;16.416;2023-04-24T03:25:15;13.30;70.00
75927;DHT22;64605;48.296;16.416;2023-04-24T03:27:41;13.40;69.20
75927;DHT22;64605;48.296;16.416;2023-04-24T03:30:07;13.40;68.80
75927;DHT22;64605;48.296;16.416;2023-04-24T03:32:33;13.50;68.50
75927;DHT22;64605;48.296;16.416;2023-04-24T03:34:59;13.50;68.80
75927;DHT22;64605;48.296;16.416;2023-04-24T03:37:24;13.50;67.80
75927;DHT22;64605;48.296;16.416;2023-04-24T03:39:51;13.50;68.20
75927;DHT22;64605;48.296;16.416;2023-04-24T03:42:17;13.40;68.00
75927;DHT22;64605;48.296;16.416;2023-04-24T03:44:43;13.50;67.60
75927;DHT22;64605;48.296;16.416;2023-04-24T03:47:08;13.50;67.90
75927;DHT22;64605;48.296;16.416;2023-04-24T03:49:34;13.50;68.00
75927;DHT22;64605;48.296;16.416;2023-04-24T03:52:00;13.50;68.70
75927;DHT22;64605;48.296;16.416;2023-04-24T03:54:25;13.50;68.80
75927;DHT22;64605;48.296;16.416;2023-04-24T03:56:51;13.50;68.20
75927;DHT22;64605;48.296;16.416;2023-04-24T03:59:17;13.60;68.00
75927;DHT22;64605;48.296;16.416;2023-04-24T04:01:42;13.50;68.10
75927;DHT22;64605;48.296;16.416;2023-04-24T04:04:08;13.60;68.00
75927;DHT22;64605;48.296;16.416;2023-04-24T04:06:34;13.60;68.30
75927;DHT22;64605;48.296;16.416;2023-04-24T04:09:01;13.60;68.10
75927;DHT22;64605;48.296;16.416;2023-04-24T04:11:27;13.70;67.70
75927;DHT22;64605;48.296;16.416;2023-04-24T04:13:53;13.80;67.20
75927;DHT22;64605;48.296;16.416;2023-04-24T04:16:18;13.80;67.60
75927;DHT22;64605;48.296;16.416;2023-04-24T04:18:44;13.90;67.50
75927;DHT22;64605;48.296;16.416;2023-04-24T04:21:10;14.00;67.40
75927;DHT22;64605;48.296;16.416;2023-04-24T04:23:36;14.10;67.70
75927;DHT22;64605;48.296;16.416;2023-04-24T04:26:03;14.30;67.50
75927;DHT22;64605;48.296;16.416;2023-04-24T04:28:29;14.40;67.40
75927;DHT22;64605;48.296;16.416;2023-04-24T04:30:57;14.60;67.00
75927;DHT22;64605;48.296;16.416;2023-04-24T04:33:26;14.70;67.00
75927;DHT22;64605;48.296;16.416;2023-04-24T04:35:52;14.90;66.90
75927;DHT22;64605;48.296;16.416;2023-04-24T04:38:18;15.00;66.90
75927;DHT22;64605;48.296;16.416;2023-04-24T04:40:45;15.10;66.10
75927;DHT22;64605;48.296;16.416;2023-04-24T04:43:11;15.30;65.90
75927;DHT22;64605;48.296;16.416;2023-04-24T04:45:38;15.40;65.20
75927;DHT22;64605;48.296;16.416;2023-04-24T04:48:05;15.50;64.80
75927;DHT22;64605;48.296;16.416;2023-04-24T04:50:33;15.70;64.50
75927;DHT22;64605;48.296;16.416;2023-04-24T04:52:59;15.80;63.80
75927;DHT22;64605;48.296;16.416;2023-04-24T04:55:24;15.80;63.40
75927;DHT22;64605;48.296;16.416;2023-04-24T04:57:51;15.80;63.30
75927;DHT22;64605;48.296;16.416;2023-04-24T05:00:17;15.70;62.80
75927;DHT22;64605;48.296;16.416;2023-04-24T05:02:43;15.70;62.80
75927;DHT22;64605;48.296;16.416;2023-04-24T05:05:09;15.70;63.00
75927;DHT22;64605;48.296;16.416;2023-04-24T05:07:35;15.70;62.60
75927;DHT22;64605;48.296;16.416;2023-04-24T05:10:01;15.80;62.40
75927;DHT22;64605;48.296;16.416;2023-04-24T05:12:27;15.70;61.80
75927;DHT22;64605;48.296;16.416;2023-04-24T05:14:53;15.80;62.40
75927;DHT22;64605;48.296;16.416;2023-04-24T05:17:18;15.90;62.30
75927;DHT22;64605;48.296;16.416;2023-04-24T05:19:44;16.00;61.80
75927;DHT22;64605;48.296;16.416;2023-04-24T05:22:10;16.20;61.40
75927;DHT22;64605;48.296;16.416;2023-04-24T05:24:37;16.40;60.90
75927;DHT22;64605;48.296;16.416;2023-04-24T05:27:03;16.40;61.20
75927;DHT22;64605;48.296;16.416;2023-04-24T05:29:30;16.60;60.00
75927;DHT22;64605;48.296;16.416;2023-04-24T05:31:57;16.80;59.60
75927;DHT22;64605;48.296;16.416;2023-04-24T05:34:23;17.10;59.40
75927;DHT22;64605;48.296;16.416;2023-04-24T05:36:49;17.20;58.00
75927;DHT22;64605;48.296;16.416;2023-04-24T05:39:16;17.40;58.00
75927;DHT22;64605;48.296;16.416;2023-04-24T05:41:42;17.60;57.70
75927;DHT22;64605;48.296;16.416;2023-04-24T05:44:07;17.80;56.80
75927;DHT22;64605;48.296;16.416;2023-04-24T05:46:33;18.10;55.70
75927;DHT22;64605;48.296;16.416;2023-04-24T05:48:59;18.40;55.70
75927;DHT22;64605;48.296;16.416;2023-04-24T05:51:25;18.80;54.60
75927;DHT22;64605;48.296;16.416;2023-04-24T05:53:51;19.00;53.40
75927;DHT22;64605;48.296;16.416;2023-04-24T05:56:17;19.30;53.90
75927;DHT22;64605;48.296;16.416;2023-04-24T05:58:45;19.40;52.30
75927;DHT22;64605;48.296;16.416;2023-04-24T06:01:12;19.60;52.80
75927;DHT22;64605;48.296;16.416;2023-04-24T06:03:38;19.80;51.00
75927;DHT22;64605;48.296;16.416;2023-04-24T06:06:06;19.80;50.40
75927;DHT22;64605;48.296;16.416;2023-04-24T06:08:31;19.90;50.40
75927;DHT22;64605;48.296;16.416;2023-04-24T06:10:58;19.90;49.70
75927;DHT22;64605;48.296;16.416;2023-04-24T06:13:23;19.80;49.60
75927;DHT22;64605;48.296;16.416;2023-04-24T06:15:49;19.70;50.40
75927;DHT22;64605;48.296;16.416;2023-04-24T06:18:15;19.70;50.40
75927;DHT22;64605;48.296;16.416;2023-04-24T06:20:41;19.50;49.50
75927;DHT22;64605;48.296;16.416;2023-04-24T06:23:06;19.50;49.90
75927;DHT22;64605;48.296;16.416;2023-04-24T06:25:32;19.30;50.00
75927;DHT22;64605;48.296;16.416;2023-04-24T06:27:59;19.30;50.20
75927;DHT22;64605;48.296;16.416;2023-04-24T06:30:25;19.10;50.50
75927;DHT22;64605;48.296;16.416;2023-04-24T06:32:51;19.00;50.50
75927;DHT22;64605;48.296;16.416;2023-04-24T06:35:16;19.10;51.00
75927;DHT22;64605;48.296;16.416;2023-04-24T06:37:42;19.20;51.20
75927;DHT22;64605;48.296;16.416;2023-04-24T06:40:09;19.50;50.90
75927;DHT22;64605;48.296;16.416;2023-04-24T06:42:35;19.80;50.40
75927;DHT22;64605;48.296;16.416;2023-04-24T06:45:02;19.90;49.30
75927;DHT22;64605;48.296;16.416;2023-04-24T06:47:27;20.20;49.20
75927;DHT22;64605;48.296;16.416;2023-04-24T06:49:53;20.40;48.10
75927;DHT22;64605;48.296;16.416;2023-04-24T06:52:19;20.60;48.10
75927;DHT22;64605;48.296;16.416;2023-04-24T06:54:45;21.10;47.80
75927;DHT22;64605;48.296;16.416;2023-04-24T06:57:10;21.40;46.10
75927;DHT22;64605;48.296;16.416;2023-04-24T06:59:36;21.50;46.20
75927;DHT22;64605;48.296;16.416;2023-04-24T07:02:02;21.60;44.90
75927;DHT22;64605;48.296;16.416;2023-04-24T07:04:28;21.80;45.10
75927;DHT22;64605;48.296;16.416;2023-04-24T07:06:54;22.00;45.10
75927;DHT22;64605;48.296;16.416;2023-04-24T07:09:22;22.30;44.40
75927;DHT22;64605;48.296;16.416;2023-04-24T07:11:49;22.70;45.20
75927;DHT22;64605;48.296;16.416;2023-04-24T07:14:15;23.10;42.70
75927;DHT22;64605;48.296;16.416;2023-04-24T07:16:41;23.40;41.70
75927;DHT22;64605;48.296;16.416;2023-04-24T07:19:07;23.40;40.50
75927;DHT22;64605;48.296;16.416;2023-04-24T07:21:32;24.20;39.30
75927;DHT22;64605;48.296;16.416;2023-04-24T07:23:58;24.50;39.20
75927;DHT22;64605;48.296;16.416;2023-04-24T07:26:25;24.50;38.80
75927;DHT22;64605;48.296;16.416;2023-04-24T07:28:51;24.30;38.20
75927;DHT22;64605;48.296;16.416;2023-04-24T07:31:17;24.00;39.40
75927;DHT22;64605;48.296;16.416;2023-04-24T07:33:43;24.10;39.50
75927;DHT22;64605;48.296;16.416;2023-04-24T07:36:08;23.70;39.00
75927;DHT22;64605;48.296;16.416;2023-04-24T07:38:41;23.10;39.80
75927;DHT22;64605;48.296;16.416;2023-04-24T07:41:06;23.20;40.60
75927;DHT22;64605;48.296;16.416;2023-04-24T07:43:32;23.30;40.00
75927;DHT22;64605;48.296;16.416;2023-04-24T07:45:58;23.60;40.80
75927;DHT22;64605;48.296;16.416;2023-04-24T07:48:23;24.10;39.60
75927;DHT22;64605;48.296;16.416;2023-04-24T07:50:51;25.00;37.90
75927;DHT22;64605;48.296;16.416;2023-04-24T07:53:17;25.40;37.20
75927;DHT22;64605;48.296;16.416;2023-04-24T07:55:43;25.70;36.80
75927;DHT22;64605;48.296;16.416;2023-04-24T07:58:08;25.60;36.50
75927;DHT22;64605;48.296;16.416;2023-04-24T08:00:34;25.50;36.70
75927;DHT22;64605;48.296;16.416;2023-04-24T08:03:00;25.60;36.20
75927;DHT22;64605;48.296;16.416;2023-04-24T08:05:26;25.40;35.40
75927;DHT22;64605;48.296;16.416;2023-04-24T08:07:54;24.70;36.60
75927;DHT22;64605;48.296;16.416;2023-04-24T08:10:21;24.30;37.40
75927;DHT22;64605;48.296;16.416;2023-04-24T08:12:47;23.70;38.40
75927;DHT22;64605;48.296;16.416;2023-04-24T08:15:12;23.10;39.30
75927;DHT22;64605;48.296;16.416;2023-04-24T08:17:38;22.60;40.00
75927;DHT22;64605;48.296;16.416;2023-04-24T08:20:04;22.40;41.00
75927;DHT22;64605;48.296;16.416;2023-04-24T08:22:30;22.30;41.50
75927;DHT22;64605;48.296;16.416;2023-04-24T08:24:57;22.00;42.20
75927;DHT22;64605;48.296;16.416;2023-04-24T08:27:23;21.80;42.70
75927;DHT22;64605;48.296;16.416;2023-04-24T08:29:49;21.40;43.60
75927;DHT22;64605;48.296;16.416;2023-04-24T08:32:15;21.00;44.70
75927;DHT22;64605;48.296;16.416;2023-04-24T08:34:41;20.70;47.00
75927;DHT22;64605;48.296;16.416;2023-04-24T08:37:06;20.60;47.60
75927;DHT22;64605;48.296;16.416;2023-04-24T08:39:32;20.30;48.30
75927;DHT22;64605;48.296;16.416;2023-04-24T08:41:59;20.40;49.10
75927;DHT22;64605;48.296;16.416;2023-04-24T08:44:32;20.40;48.80
75927;DHT22;64605;48.296;16.416;2023-04-24T08:46:58;20.50;48.50
75927;DHT22;64605;48.296;16.416;2023-04-24T08:49:24;20.40;47.80
75927;DHT22;64605;48.296;16.416;2023-04-24T08:51:52;20.30;49.50
75927;DHT22;64605;48.296;16.416;2023-04-24T08:54:18;20.30;49.20
75927;DHT22;64605;48.296;16.416;2023-04-24T08:56:44;20.20;48.10
75927;DHT22;64605;48.296;16.416;2023-04-24T08:59:14;20.10;47.70
75927;DHT22;64605;48.296;16.416;2023-04-24T09:01:40;20.00;48.10
75927;DHT22;64605;48.296;16.416;2023-04-24T09:04:08;19.70;47.90
75927;DHT22;64605;48.296;16.416;2023-04-24T09:06:35;19.40;48.60
75927;DHT22;64605;48.296;16.416;2023-04-24T09:09:02;19.30;49.20
75927;DHT22;64605;48.296;16.416;2023-04-24T09:11:30;19.00;49.80
75927;DHT22;64605;48.296;16.416;2023-04-24T09:13:56;18.90;50.90
75927;DHT22;64605;48.296;16.416;2023-04-24T09:16:22;18.50;52.90
75927;DHT22;64605;48.296;16.416;2023-04-24T09:18:50;18.30;54.60
75927;DHT22;64605;48.296;16.416;2023-04-24T09:21:15;18.20;55.80
75927;DHT22;64605;48.296;16.416;2023-04-24T09:23:41;18.20;56.60
75927;DHT22;64605;48.296;16.416;2023-04-24T09:26:09;18.00;57.40
75927;DHT22;64605;48.296;16.416;2023-04-24T09:28:37;17.60;59.40
75927;DHT22;64605;48.296;16.416;2023-04-24T09:31:07;17.50;60.10
75927;DHT22;64605;48.296;16.416;2023-04-24T09:33:33;17.50;59.80
75927;DHT22;64605;48.296;16.416;2023-04-24T09:35:59;17.60;59.70
75927;DHT22;64605;48.296;16.416;2023-04-24T09:38:36;17.40;60.00
75927;DHT22;64605;48.296;16.416;2023-04-24T09:41:03;17.50;60.30
75927;DHT22;64605;48.296;16.416;2023-04-24T09:43:30;17.40;60.00
75927;DHT22;64605;48.296;16.416;2023-04-24T09:45:57;17.40;59.70
75927;DHT22;64605;48.296;16.416;2023-04-24T09:48:31;17.20;60.40
75927;DHT22;64605;48.296;16.416;2023-04-24T09:50:57;17.00;60.50
75927;DHT22;64605;48.296;16.416;2023-04-24T09:53:25;16.90;59.40
75927;DHT22;64605;48.296;16.416;2023-04-24T09:55:51;16.80;61.10
75927;DHT22;64605;48.296;16.416;2023-04-24T09:58:24;16.80;59.80
75927;DHT22;64605;48.296;16.416;2023-04-24T10:00:50;16.90;60.40
75927;DHT22;64605;48.296;16.416;2023-04-24T10:03:18;16.90;60.10
75927;DHT22;64605;48.296;16.416;2023-04-24T10:05:46;17.10;59.70
75927;DHT22;64605;48.296;16.416;2023-04-24T10:08:13;17.10;60.00
75927;DHT22;64605;48.296;16.416;2023-04-24T10:10:45;17.00;59.20
75927;DHT22;64605;48.296;16.416;2023-04-24T10:13:12;17.00;59.40
75927;DHT22;64605;48.296;16.416;2023-04-24T10:15:39;17.10;59.90
75927;DHT22;64605;48.296;16.416;2023-04-24T10:18:07;17.20;59.80
75927;DHT22;64605;48.296;16.416;2023-04-24T10:20:34;17.30;59.00
75927;DHT22;64605;48.296;16.416;2023-04-24T10:23:00;17.30;58.60
75927;DHT22;64605;48.296;16.416;2023-04-24T10:25:36;17.40;58.70
75927;DHT22;64605;48.296;16.416;2023-04-24T10:28:03;17.30;58.60
75927;DHT22;64605;48.296;16.416;2023-04-24T10:30:31;17.20;58.00
75927;DHT22;64605;48.296;16.416;2023-04-24T10:33:01;17.00;58.60
75927;DHT22;64605;48.296;16.416;2023-04-24T10:35:26;17.10;59.10
75927;DHT22;64605;48.296;16.416;2023-04-24T10:38:02;17.10;59.40
75927;DHT22;64605;48.296;16.416;2023-04-24T10:40:33;17.20;59.00
75927;DHT22;64605;48.296;16.416;2023-04-24T10:43:03;17.30;58.80
75927;DHT22;64605;48.296;16.416;2023-04-24T10:45:31;17.10;59.50
75927;DHT22;64605;48.296;16.416;2023-04-24T10:50:22;17.20;59.30
75927;DHT22;64605;48.296;16.416;2023-04-24T10:52:49;17.20;59.40
75927;DHT22;64605;48.296;16.416;2023-04-24T10:55:43;17.10;59.90
75927;DHT22;64605;48.296;16.416;2023-04-24T10:58:09;17.20;59.70
75927;DHT22;64605;48.296;16.416;2023-04-24T11:00:40;17.30;59.40
75927;DHT22;64605;48.296;16.416;2023-04-24T11:03:09;17.30;59.40
75927;DHT22;64605;48.296;16.416;2023-04-24T11:05:55;17.40;59.00
75927;DHT22;64605;48.296;16.416;2023-04-24T11:10:59;17.40;58.60
75927;DHT22;64605;48.296;16.416;2023-04-24T11:13:28;17.60;58.90
75927;DHT22;64605;48.296;16.416;2023-04-24T11:16:32;17.60;58.60
75927;DHT22;64605;48.296;16.416;2023-04-24T11:21:44;17.70;58.20
75927;DHT22;64605;48.296;16.416;2023-04-24T11:27:15;17.70;57.80
75927;DHT22;64605;48.296;16.416;2023-04-24T11:34:55;17.40;58.80
75927;DHT22;64605;48.296;16.416;2023-04-24T11:37:22;17.30;59.70
75927;DHT22;64605;48.296;16.416;2023-04-24T11:39:53;17.20;60.90
75927;DHT22;64605;48.296;16.416;2023-04-24T11:42:21;17.20;61.00
75927;DHT22;64605;48.296;16.416;2023-04-24T11:44:48;17.20;62.50
75927;DHT22;64605;48.296;16.416;2023-04-24T11:47:14;17.30;62.60
75927;DHT22;64605;48.296;16.416;2023-04-24T11:49:40;17.50;62.10
75927;DHT22;64605;48.296;16.416;2023-04-24T11:52:06;17.60;61.80
75927;DHT22;64605;48.296;16.416;2023-04-24T11:54:32;17.60;61.70
75927;DHT22;64605;48.296;16.416;2023-04-24T11:56:57;17.60;62.30
75927;DHT22;64605;48.296;16.416;2023-04-24T11:59:23;17.50;62.40
75927;DHT22;64605;48.296;16.416;2023-04-24T12:01:49;17.60;63.00
75927;DHT22;64605;48.296;16.416;2023-04-24T12:04:17;17.50;63.00
75927;DHT22;64605;48.296;16.416;2023-04-24T12:07:02;17.50;62.60
75927;DHT22;64605;48.296;16.416;2023-04-24T12:09:27;17.50;62.70
75927;DHT22;64605;48.296;16.416;2023-04-24T12:11:55;17.60;63.30
75927;DHT22;64605;48.296;16.416;2023-04-24T12:14:23;17.80;62.70
75927;DHT22;64605;48.296;16.416;2023-04-24T12:16:50;17.80;62.20
75927;DHT22;64605;48.296;16.416;2023-04-24T12:19:23;17.90;61.90
75927;DHT22;64605;48.296;16.416;2023-04-24T12:22:00;17.90;62.00
75927;DHT22;64605;48.296;16.416;2023-04-24T12:24:26;17.90;62.20
75927;DHT22;64605;48.296;16.416;2023-04-24T12:26:51;17.80;62.30
75927;DHT22;64605;48.296;16.416;2023-04-24T12:29:21;18.10;62.50
75927;DHT22;64605;48.296;16.416;2023-04-24T12:31:47;18.50;62.00
75927;DHT22;64605;48.296;16.416;2023-04-24T12:34:20;18.70;61.20
75927;DHT22;64605;48.296;16.416;2023-04-24T12:36:46;19.00;60.40
75927;DHT22;64605;48.296;16.416;2023-04-24T12:39:19;19.10;59.60
75927;DHT22;64605;48.296;16.416;2023-04-24T12:41:57;19.50;60.00
75927;DHT22;64605;48.296;16.416;2023-04-24T12:44:33;19.70;57.80
75927;DHT22;64605;48.296;16.416;2023-04-24T12:47:00;19.70;57.60
75927;DHT22;64605;48.296;16.416;2023-04-24T12:49:26;19.90;58.10
75927;DHT22;64605;48.296;16.416;2023-04-24T12:51:52;19.90;57.60
75927;DHT22;64605;48.296;16.416;2023-04-24T12:54:18;19.80;56.70
75927;DHT22;64605;48.296;16.416;2023-04-24T12:56:43;19.80;56.70
75927;DHT22;64605;48.296;16.416;2023-04-24T12:59:09;19.60;55.90
75927;DHT22;64605;48.296;16.416;2023-04-24T13:01:35;19.60;56.40
75927;DHT22;64605;48.296;16.416;2023-04-24T13:04:01;19.50;56.90
75927;DHT22;64605;48.296;16.416;2023-04-24T13:06:26;19.40;57.60
75927;DHT22;64605;48.296;16.416;2023-04-24T13:08:52;19.20;57.50
75927;DHT22;64605;48.296;16.416;2023-04-24T13:11:20;19.40;58.10
75927;DHT22;64605;48.296;16.416;2023-04-24T13:13:47;19.40;57.40
75927;DHT22;64605;48.296;16.416;2023-04-24T13:16:13;19.50;58.10
75927;DHT22;64605;48.296;16.416;2023-04-24T13:18:38;19.40;57.90
75927;DHT22;64605;48.296;16.416;2023-04-24T13:21:04;19.40;57.70
75927;DHT22;64605;48.296;16.416;2023-04-24T13:23:29;19.40;58.50
75927;DHT22;64605;48.296;16.416;2023-04-24T13:25:55;19.40;58.10
75927;DHT22;64605;48.296;16.416;2023-04-24T13:28:24;19.40;58.50
75927;DHT22;64605;48.296;16.416;2023-04-24T13:30:50;19.30;58.60
75927;DHT22;64605;48.296;16.416;2023-04-24T13:33:16;19.30;58.60
75927;DHT22;64605;48.296;16.416;2023-04-24T13:35:42;19.40;58.50
75927;DHT22;64605;48.296;16.416;2023-04-24T13:38:07;19.40;58.20
75927;DHT22;64605;48.296;16.416;2023-04-24T13:40:34;19.40;58.50
75927;DHT22;64605;48.296;16.416;2023-04-24T13:43:01;19.40;58.80
75927;DHT22;64605;48.296;16.416;2023-04-24T13:45:26;19.40;58.90
75927;DHT22;64605;48.296;16.416;2023-04-24T13:47:52;19.40;58.80
75927;DHT22;64605;48.296;16.416;2023-04-24T13:50:20;19.40;59.00
75927;DHT22;64605;48.296;16.416;2023-04-24T13:52:46;19.30;58.40
75927;DHT22;64605;48.296;16.416;2023-04-24T13:55:14;19.40;58.10
75927;DHT22;64605;48.296;16.416;2023-04-24T13:57:40;19.30;59.00
75927;DHT22;64605;48.296;16.416;2023-04-24T14:00:06;19.20;60.00
75927;DHT22;64605;48.296;16.416;2023-04-24T14:02:35;19.20;59.50
75927;DHT22;64605;48.296;16.416;2023-04-24T14:05:01;19.10;61.20
75927;DHT22;64605;48.296;16.416;2023-04-24T14:07:28;19.00;61.70
75927;DHT22;64605;48.296;16.416;2023-04-24T14:09:54;19.00;61.30
75927;DHT22;64605;48.296;16.416;2023-04-24T14:12:20;18.90;62.60
75927;DHT22;64605;48.296;16.416;2023-04-24T14:14:46;18.80;61.60
75927;DHT22;64605;48.296;16.416;2023-04-24T14:17:13;18.50;61.50
75927;DHT22;64605;48.296;16.416;2023-04-24T14:19:39;18.40;63.00
75927;DHT22;64605;48.296;16.416;2023-04-24T14:22:05;18.30;63.40
75927;DHT22;64605;48.296;16.416;2023-04-24T14:24:30;18.20;63.60
75927;DHT22;64605;48.296;16.416;2023-04-24T14:26:56;18.10;63.80
75927;DHT22;64605;48.296;16.416;2023-04-24T14:29:22;17.90;65.10
75927;DHT22;64605;48.296;16.416;2023-04-24T14:31:48;17.80;66.20
75927;DHT22;64605;48.296;16.416;2023-04-24T14:34:14;17.90;66.10
75927;DHT22;64605;48.296;16.416;2023-04-24T14:36:39;17.90;65.30
75927;DHT22;64605;48.296;16.416;2023-04-24T14:39:06;17.90;66.80
75927;DHT22;64605;48.296;16.416;2023-04-24T14:41:32;17.70;66.80
75927;DHT22;64605;48.296;16.416;2023-04-24T14:44:01;17.60;67.00
75927;DHT22;64605;48.296;16.416;2023-04-24T14:46:28;17.60;67.70
75927;DHT22;64605;48.296;16.416;2023-04-24T14:48:56;17.80;67.80
75927;DHT22;64605;48.296;16.416;2023-04-24T14:51:22;17.90;66.80
75927;DHT22;64605;48.296;16.416;2023-04-24T14:53:47;18.20;67.70
75927;DHT22;64605;48.296;16.416;2023-04-24T14:56:13;18.30;67.10
75927;DHT22;64605;48.296;16.416;2023-04-24T14:58:39;18.50;66.00
75927;DHT22;64605;48.296;16.416;2023-04-24T15:01:05;18.60;64.70
75927;DHT22;64605;48.296;16.416;2023-04-24T15:03:31;18.70;64.90
75927;DHT22;64605;48.296;16.416;2023-04-24T15:05:57;18.60;63.40
75927;DHT22;64605;48.296;16.416;2023-04-24T15:08:22;18.50;64.60
75927;DHT22;64605;48.296;16.416;2023-04-24T15:10:48;18.60;64.50
75927;DHT22;64605;48.296;16.416;2023-04-24T15:13:14;18.60;64.70
75927;DHT22;64605;48.296;16.416;2023-04-24T15:15:39;18.60;64.60
75927;DHT22;64605;48.296;16.416;2023-04-24T15:18:08;18.60;63.80
75927;DHT22;64605;48.296;16.416;2023-04-24T15:20:36;18.70;63.80
75927;DHT22;64605;48.296;16.416;2023-04-24T15:23:01;18.70;63.40
75927;DHT22;64605;48.296;16.416;2023-04-24T15:25:27;18.50;62.10
75927;DHT22;64605;48.296;16.416;2023-04-24T15:27:53;18.40;64.00